createdAt,value
2022-09-17T00:01:41.678Z,2.13
2022-09-17T00:04:11.199Z,2.08
2022-09-17T00:06:39.495Z,2.15
2022-09-17T00:09:09.187Z,2.17
2022-09-17T00:11:41.601Z,2.00
2022-09-17T00:14:14.388Z,2.00
2022-09-17T00:16:47.070Z,2.30
2022-09-17T00:19:19.177Z,2.30
2022-09-17T00:21:47.721Z,2.17
2022-09-17T00:24:17.754Z,2.30
2022-09-17T00:26:46.336Z,2.20
2022-09-17T00:29:14.739Z,2.08
2022-09-17T00:31:44.505Z,2.05
2022-09-17T00:34:13.071Z,2.00
2022-09-17T00:36:41.566Z,2.30
2022-09-17T00:39:12.457Z,2.60
2022-09-17T00:41:41.238Z,2.60
2022-09-17T00:44:44.467Z,2.05
2022-09-17T00:47:26.223Z,2.72
2022-09-17T00:49:58.529Z,2.50
2022-09-17T00:52:31.039Z,2.10
2022-09-17T00:55:06.477Z,2.22
2022-09-17T00:57:35.446Z,1.98
2022-09-17T01:00:06.100Z,2.30
2022-09-17T01:02:36.615Z,2.22
2022-09-17T01:05:05.538Z,2.40
2022-09-17T01:07:53.354Z,2.47
2022-09-17T01:10:37.137Z,2.25
2022-09-17T01:13:19.611Z,2.08
2022-09-17T01:16:01.282Z,2.00
2022-09-17T01:18:58.695Z,2.60
2022-09-17T01:21:39.651Z,2.13
2022-09-17T01:24:54.947Z,2.15
2022-09-17T01:28:15.528Z,2.73
2022-09-17T01:31:05.635Z,2.70
2022-09-17T01:33:43.496Z,2.42
2022-09-17T01:36:23.475Z,2.42
2022-09-17T01:38:59.850Z,2.80
2022-09-17T01:41:34.280Z,2.92
2022-09-17T01:44:12.085Z,2.67
2022-09-17T01:46:47.937Z,2.45
2022-09-17T01:49:18.130Z,2.10
2022-09-17T01:51:49.655Z,2.70
2022-09-17T01:54:24.790Z,2.63
2022-09-17T01:56:59.434Z,2.53
2022-09-17T01:59:32.624Z,2.85
2022-09-17T02:02:08.352Z,2.70
2022-09-17T02:04:43.155Z,2.42
2022-09-17T02:07:16.160Z,2.95
2022-09-17T02:09:51.017Z,2.63
2022-09-17T02:12:25.372Z,2.73
2022-09-17T02:14:58.518Z,2.30
2022-09-17T02:17:33.307Z,2.40
2022-09-17T02:20:03.752Z,2.55
2022-09-17T02:22:40.604Z,2.50
2022-09-17T02:25:16.434Z,2.70
2022-09-17T02:27:53.603Z,2.55
2022-09-17T02:30:22.126Z,2.45
2022-09-17T02:32:52.105Z,2.22
2022-09-17T02:35:20.812Z,2.42
2022-09-17T02:37:49.466Z,2.72
2022-09-17T02:40:21.340Z,2.40
2022-09-17T02:43:09.576Z,2.28
2022-09-17T02:45:47.908Z,2.57
2022-09-17T02:48:36.201Z,2.55
2022-09-17T02:51:18.572Z,3.00
2022-09-17T02:53:56.938Z,2.67
2022-09-17T02:56:41.284Z,2.95
2022-09-17T02:59:19.876Z,2.67
2022-09-17T03:01:54.859Z,2.83
2022-09-17T03:04:28.571Z,2.67
2022-09-17T03:06:59.554Z,2.60
2022-09-17T03:09:28.121Z,2.60
2022-09-17T03:11:56.743Z,2.47
2022-09-17T03:14:25.314Z,2.70
2022-09-17T03:16:53.836Z,2.63
2022-09-17T03:19:22.376Z,2.63
2022-09-17T03:21:52.302Z,2.63
2022-09-17T03:24:20.851Z,2.50
2022-09-17T03:26:50.415Z,2.50
2022-09-17T03:29:19.156Z,2.58
2022-09-17T03:31:47.882Z,2.60
2022-09-17T03:34:16.561Z,2.40
2022-09-17T03:36:45.090Z,2.80
2022-09-17T03:39:15.095Z,2.40
2022-09-17T03:41:43.624Z,2.30
2022-09-17T03:44:12.524Z,2.30
2022-09-17T03:46:41.113Z,2.30
2022-09-17T03:49:09.969Z,2.42
2022-09-17T03:51:38.492Z,2.92
2022-09-17T03:54:07.231Z,2.50
2022-09-17T03:56:37.199Z,2.53
2022-09-17T03:59:05.773Z,2.40
2022-09-17T04:01:34.401Z,2.30
2022-09-17T04:04:03.786Z,2.50
2022-09-17T04:06:32.446Z,2.53
2022-09-17T04:09:03.500Z,2.38
2022-09-17T04:11:32.129Z,2.40
2022-09-17T04:14:02.085Z,2.67
2022-09-17T04:16:30.717Z,2.53
2022-09-17T04:18:59.289Z,2.40
2022-09-17T04:21:27.908Z,2.80
2022-09-17T04:23:56.553Z,3.00
2022-09-17T04:26:25.083Z,2.35
2022-09-17T04:28:53.605Z,3.00
2022-09-17T04:31:25.093Z,2.70
2022-09-17T04:33:53.686Z,3.17
2022-09-17T04:36:22.266Z,2.08
2022-09-17T04:38:51.117Z,2.90
2022-09-17T04:41:19.638Z,2.58
2022-09-17T04:43:48.153Z,2.00
2022-09-17T04:46:17.164Z,2.47
2022-09-17T04:48:47.241Z,2.45
2022-09-17T04:51:15.781Z,2.28
2022-09-17T04:53:44.290Z,2.30
2022-09-17T04:56:12.881Z,2.67
2022-09-17T04:58:41.475Z,2.30
2022-09-17T05:01:10.055Z,2.70
2022-09-17T05:03:38.579Z,2.65
2022-09-17T05:06:08.730Z,2.97
2022-09-17T05:08:37.507Z,2.55
2022-09-17T05:11:06.360Z,2.13
2022-09-17T05:13:35.045Z,2.27
2022-09-17T05:16:04.024Z,2.67
2022-09-17T05:18:32.559Z,2.20
2022-09-17T05:21:01.099Z,3.08
2022-09-17T05:23:31.005Z,2.90
2022-09-17T05:26:00.716Z,2.40
2022-09-17T05:28:29.741Z,2.20
2022-09-17T05:31:01.198Z,3.00
2022-09-17T05:33:30.215Z,2.92
2022-09-17T05:35:59.939Z,2.83
2022-09-17T05:38:29.824Z,2.75
2022-09-17T05:40:58.392Z,2.65
2022-09-17T05:43:26.948Z,2.47
2022-09-17T05:45:55.621Z,2.70
2022-09-17T05:48:24.140Z,2.20
2022-09-17T05:50:52.746Z,2.63
2022-09-17T05:53:21.267Z,2.47
2022-09-17T05:55:51.217Z,2.55
2022-09-17T05:58:20.893Z,2.83
2022-09-17T06:00:49.909Z,2.88
2022-09-17T06:03:20.492Z,2.33
2022-09-17T06:05:55.787Z,2.22
2022-09-17T06:08:24.378Z,2.67
2022-09-17T06:10:56.987Z,2.70
2022-09-17T06:13:28.872Z,2.58
2022-09-17T06:15:57.541Z,2.15
2022-09-17T06:18:26.726Z,2.10
2022-09-17T06:20:56.073Z,2.35
2022-09-17T06:23:25.254Z,3.10
2022-09-17T06:25:57.509Z,2.70
2022-09-17T06:28:26.701Z,2.38
2022-09-17T06:30:57.298Z,2.53
2022-09-17T06:33:26.853Z,2.72
2022-09-17T06:36:00.661Z,2.78
2022-09-17T06:38:30.337Z,2.50
2022-09-17T06:41:00.707Z,2.65
2022-09-17T06:43:29.646Z,2.20
2022-09-17T06:46:00.164Z,2.60
2022-09-17T06:48:29.434Z,2.80
2022-09-17T06:51:03.425Z,2.72
2022-09-17T06:53:32.480Z,2.60
2022-09-17T06:56:06.455Z,2.45
2022-09-17T06:58:37.118Z,2.50
2022-09-17T07:01:06.965Z,2.60
2022-09-17T07:03:35.872Z,2.15
2022-09-17T07:06:05.107Z,2.78
2022-09-17T07:08:35.473Z,2.65
2022-09-17T07:11:05.475Z,2.53
2022-09-17T07:13:34.055Z,2.72
2022-09-17T07:16:04.695Z,2.92
2022-09-17T07:18:33.758Z,2.30
2022-09-17T07:21:03.946Z,2.30
2022-09-17T07:23:34.648Z,2.53
2022-09-17T07:26:06.249Z,2.67
2022-09-17T07:28:35.008Z,2.33
2022-09-17T07:31:06.507Z,2.17
2022-09-17T07:33:37.559Z,2.47
2022-09-17T07:36:08.182Z,2.80
2022-09-17T07:38:37.167Z,2.33
2022-09-17T07:41:08.763Z,2.72
2022-09-17T07:43:37.547Z,2.80
2022-09-17T07:46:08.772Z,2.75
2022-09-17T07:48:37.316Z,2.45
2022-09-17T07:51:05.998Z,2.40
2022-09-17T07:53:34.555Z,2.92
2022-09-17T07:56:03.427Z,2.40
2022-09-17T07:58:35.986Z,2.70
2022-09-17T08:01:05.521Z,2.80
2022-09-17T08:03:34.312Z,2.55
2022-09-17T08:06:04.965Z,2.28
2022-09-17T08:08:35.822Z,2.50
2022-09-17T08:11:05.571Z,2.25
2022-09-17T08:13:36.159Z,2.45
2022-09-17T08:16:07.264Z,2.53
2022-09-17T08:18:36.356Z,2.80
2022-09-17T08:21:06.994Z,2.30
2022-09-17T08:23:37.421Z,2.50
2022-09-17T08:26:08.637Z,2.05
2022-09-17T08:28:38.554Z,2.53
2022-09-17T08:31:08.916Z,1.97
2022-09-17T08:33:39.150Z,2.80
2022-09-17T08:36:09.499Z,2.65
2022-09-17T08:38:38.976Z,2.08
2022-09-17T08:41:18.941Z,2.20
2022-09-17T08:43:59.745Z,2.33
2022-09-17T08:46:32.294Z,2.40
2022-09-17T08:49:08.595Z,2.30
2022-09-17T08:51:49.172Z,2.63
2022-09-17T08:54:24.375Z,2.30
2022-09-17T08:57:08.886Z,2.63
2022-09-17T08:59:46.982Z,2.10
2022-09-17T09:02:26.056Z,1.88
2022-09-17T09:05:03.894Z,2.22
2022-09-17T09:07:39.091Z,2.42
2022-09-17T09:10:19.860Z,2.60
2022-09-17T09:12:50.634Z,2.10
2022-09-17T09:15:38.235Z,2.40
2022-09-17T09:18:19.416Z,2.20
2022-09-17T09:20:53.593Z,2.30
2022-09-17T09:23:28.393Z,2.50
2022-09-17T09:26:05.008Z,2.10
2022-09-17T09:28:46.472Z,2.38
2022-09-17T09:31:35.853Z,2.30
2022-09-17T09:34:05.201Z,1.75
2022-09-17T09:36:35.303Z,2.10
2022-09-17T09:39:11.047Z,1.80
2022-09-17T09:41:47.336Z,2.13
2022-09-17T09:44:17.289Z,1.95
2022-09-17T09:47:10.600Z,2.08
2022-09-17T09:49:53.557Z,1.97
2022-09-17T09:52:36.636Z,1.90
2022-09-17T09:55:26.370Z,1.88
2022-09-17T09:58:04.227Z,2.20
2022-09-17T10:00:37.348Z,2.00
2022-09-17T10:03:15.124Z,2.08
2022-09-17T10:05:55.702Z,2.17
2022-09-17T10:08:24.451Z,2.00
2022-09-17T10:11:04.479Z,2.00
2022-09-17T10:13:35.679Z,2.15
2022-09-17T10:16:18.951Z,2.20
2022-09-17T10:18:50.041Z,2.03
2022-09-17T10:21:23.179Z,1.90
2022-09-17T10:23:52.218Z,2.20
2022-09-17T10:26:30.033Z,1.77
2022-09-17T10:29:01.543Z,2.03
2022-09-17T10:31:47.022Z,2.17
2022-09-17T10:34:23.789Z,2.20
2022-09-17T10:36:52.954Z,1.77
2022-09-17T10:39:34.178Z,1.97
2022-09-17T10:42:04.810Z,1.95
2022-09-17T10:44:35.196Z,2.30
2022-09-17T10:47:06.575Z,1.70
2022-09-17T10:49:43.610Z,1.80
2022-09-17T10:52:24.841Z,1.40
2022-09-17T10:55:19.346Z,2.15
2022-09-17T10:58:14.692Z,2.00
2022-09-17T11:01:03.187Z,1.88
2022-09-17T11:03:58.629Z,1.50
2022-09-17T11:06:33.803Z,1.48
2022-09-17T11:09:16.331Z,1.63
2022-09-17T11:11:56.605Z,1.90
2022-09-17T11:14:50.441Z,1.90
2022-09-17T11:17:42.415Z,2.05
2022-09-17T11:20:22.660Z,1.98
2022-09-17T11:23:03.523Z,1.80
2022-09-17T11:25:44.780Z,2.10
2022-09-17T11:28:33.933Z,1.93
2022-09-17T11:31:18.394Z,1.70
2022-09-17T11:34:05.841Z,1.75
2022-09-17T11:36:45.331Z,1.90
2022-09-17T11:39:20.969Z,1.90
2022-09-17T11:41:53.319Z,1.80
2022-09-17T11:44:28.450Z,1.88
2022-09-17T11:47:04.418Z,1.70
2022-09-17T11:49:38.723Z,1.52
2022-09-17T11:52:12.435Z,1.50
2022-09-17T11:54:46.919Z,1.80
2022-09-17T11:57:20.554Z,1.67
2022-09-17T11:59:55.509Z,1.73
2022-09-17T12:02:27.631Z,1.77
2022-09-17T12:05:03.342Z,1.80
2022-09-17T12:07:42.291Z,1.73
2022-09-17T12:10:45.231Z,1.65
2022-09-17T12:13:27.152Z,1.90
2022-09-17T12:16:05.558Z,2.03
2022-09-17T12:18:46.786Z,1.75
2022-09-17T12:21:19.435Z,1.83
2022-09-17T12:23:53.215Z,1.83
2022-09-17T12:26:34.865Z,1.60
2022-09-17T12:29:12.530Z,1.60
2022-09-17T12:31:48.972Z,2.03
2022-09-17T12:34:35.048Z,2.20
2022-09-17T12:37:12.240Z,2.00
2022-09-17T12:40:12.756Z,2.00
2022-09-17T12:43:00.896Z,2.30
2022-09-17T12:45:57.641Z,1.88
2022-09-17T12:48:55.991Z,1.90
2022-09-17T12:51:44.924Z,1.75
2022-09-17T12:54:30.549Z,2.20
2022-09-17T12:57:09.697Z,2.10
2022-09-17T12:59:48.183Z,1.87
2022-09-17T13:02:26.316Z,1.85
2022-09-17T13:05:35.713Z,1.83
2022-09-17T13:08:42.141Z,1.80
2022-09-17T13:11:47.973Z,2.00
2022-09-17T13:14:25.408Z,1.60
2022-09-17T13:17:01.585Z,1.63
2022-09-17T13:19:40.416Z,2.17
2022-09-17T13:22:14.814Z,1.90
2022-09-17T13:27:37.624Z,1.90
2022-09-17T13:30:07.794Z,2.00
2022-09-17T13:33:04.018Z,1.80
2022-09-17T13:35:53.074Z,2.00
2022-09-17T13:38:24.382Z,2.30
2022-09-17T13:40:54.017Z,1.80
2022-09-17T13:43:27.731Z,1.65
2022-09-17T13:46:16.976Z,2.03
2022-09-17T13:48:51.795Z,2.00
2022-09-17T13:52:00.157Z,1.95
2022-09-17T13:54:39.865Z,2.08
2022-09-17T13:57:13.171Z,2.15
2022-09-17T13:59:55.580Z,1.98
2022-09-17T14:02:36.504Z,1.95
2022-09-17T14:05:36.462Z,1.92
2022-09-17T14:08:33.185Z,1.75
2022-09-17T14:11:25.420Z,2.20
2022-09-17T14:13:55.456Z,1.77
2022-09-17T14:16:48.672Z,1.98
2022-09-17T14:19:37.960Z,1.50
2022-09-17T14:22:18.520Z,1.98
2022-09-17T14:24:52.863Z,1.90
2022-09-17T14:27:44.367Z,2.00
2022-09-17T14:30:16.775Z,2.20
2022-09-17T14:32:53.703Z,1.97
2022-09-17T14:35:26.240Z,2.00
2022-09-17T14:38:00.884Z,2.03
2022-09-17T14:40:31.839Z,1.90
2022-09-17T14:43:03.816Z,2.10
2022-09-17T14:45:37.973Z,2.20
2022-09-17T14:48:37.638Z,2.20
2022-09-17T14:51:29.103Z,1.98
2022-09-17T14:54:18.898Z,2.20
2022-09-17T14:56:52.342Z,1.77
2022-09-17T14:59:38.972Z,1.90
2022-09-17T15:02:30.321Z,2.10
2022-09-17T15:05:00.241Z,2.15
2022-09-17T15:07:29.115Z,1.83
2022-09-17T15:10:09.125Z,2.10
2022-09-17T15:12:39.536Z,2.10
2022-09-17T15:15:18.066Z,1.80
2022-09-17T15:17:47.469Z,2.05
2022-09-17T15:20:20.969Z,2.10
2022-09-17T15:22:56.337Z,2.08
2022-09-17T15:25:26.774Z,2.20
2022-09-17T15:27:59.670Z,2.08
2022-09-17T15:30:29.736Z,1.83
2022-09-17T15:33:00.174Z,2.15
2022-09-17T15:35:30.453Z,1.90
2022-09-17T15:40:51.762Z,2.00
2022-09-17T15:43:26.674Z,2.00
2022-09-17T15:45:58.265Z,2.10
2022-09-17T15:48:38.513Z,2.03
2022-09-17T15:51:16.098Z,1.88
2022-09-17T15:53:54.243Z,1.85
2022-09-17T15:56:26.505Z,2.33
2022-09-17T15:59:03.464Z,2.40
2022-09-17T16:01:55.832Z,2.05
2022-09-17T16:04:28.185Z,2.17
2022-09-17T16:07:02.747Z,2.22
2022-09-17T16:09:49.873Z,2.25
2022-09-17T16:12:20.574Z,2.35
2022-09-17T16:14:51.598Z,2.17
2022-09-17T16:17:33.026Z,1.98
2022-09-17T16:20:10.224Z,2.07
2022-09-17T16:22:38.745Z,2.40
2022-09-17T16:25:08.123Z,2.00
2022-09-17T16:27:46.251Z,2.17
2022-09-17T16:30:18.164Z,2.45
2022-09-17T16:32:46.962Z,2.22
2022-09-17T16:35:18.998Z,2.07
2022-09-17T16:37:50.284Z,2.20
2022-09-17T16:40:19.871Z,1.90
2022-09-17T16:42:48.968Z,2.40
2022-09-17T16:45:17.974Z,1.93
2022-09-17T16:47:46.682Z,2.13
2022-09-17T16:50:18.477Z,2.20
2022-09-17T16:52:47.540Z,2.15
2022-09-17T16:55:18.245Z,2.13
2022-09-17T16:57:47.648Z,2.15
2022-09-17T17:00:19.636Z,2.37
2022-09-17T17:02:55.241Z,2.37
2022-09-17T17:05:26.794Z,2.35
2022-09-17T17:07:56.029Z,2.05
2022-09-17T17:10:26.630Z,1.95
2022-09-17T17:12:55.329Z,2.03
2022-09-17T17:15:24.151Z,2.13
2022-09-17T17:17:52.691Z,2.00
2022-09-17T17:20:21.318Z,2.17
2022-09-17T17:22:52.001Z,2.20
2022-09-17T17:25:20.962Z,2.17
2022-09-17T17:27:49.479Z,1.95
2022-09-17T17:30:18.391Z,2.55
2022-09-17T17:32:50.994Z,2.35
2022-09-17T17:35:20.057Z,2.08
2022-09-17T17:37:50.595Z,2.27
2022-09-17T17:40:19.632Z,2.55
2022-09-17T17:42:53.579Z,2.53
2022-09-17T17:45:22.574Z,1.95
2022-09-17T17:47:51.096Z,2.05
2022-09-17T17:50:19.828Z,2.00
2022-09-17T17:52:49.134Z,2.27
2022-09-17T17:55:19.067Z,1.92
2022-09-17T17:57:47.613Z,2.42
2022-09-17T18:00:18.408Z,2.40
2022-09-17T18:02:47.017Z,2.22
2022-09-17T18:05:15.643Z,2.00
2022-09-17T18:07:44.350Z,2.03
2022-09-17T18:10:13.169Z,2.77
2022-09-17T18:12:50.114Z,2.30
2022-09-17T18:15:18.809Z,2.15
2022-09-17T18:17:49.977Z,2.42
2022-09-17T18:20:19.395Z,2.60
2022-09-17T18:22:48.093Z,2.47
2022-09-17T18:25:16.762Z,2.15
2022-09-17T18:27:46.623Z,1.90
2022-09-17T18:30:15.405Z,2.28
2022-09-17T18:32:43.961Z,2.35
2022-09-17T18:35:12.484Z,2.25
2022-09-17T18:37:41.017Z,2.58
2022-09-17T18:40:10.398Z,2.27
2022-09-17T18:42:38.974Z,2.22
2022-09-17T18:45:10.825Z,1.87
2022-09-17T18:47:39.362Z,1.90
2022-09-17T18:50:08.740Z,1.73
2022-09-17T18:52:37.288Z,1.88
2022-09-17T18:55:06.230Z,2.15
2022-09-17T18:57:34.790Z,2.03
2022-09-17T19:00:06.309Z,2.23
2022-09-17T19:02:36.240Z,2.33
2022-09-17T19:05:04.961Z,2.55
2022-09-17T19:07:33.485Z,2.22
2022-09-17T19:10:02.925Z,2.13
2022-09-17T19:12:31.916Z,2.67
2022-09-17T19:15:00.427Z,2.40
2022-09-17T19:17:29.742Z,2.25
2022-09-17T19:19:59.630Z,1.90
2022-09-17T19:22:28.154Z,2.15
2022-09-17T19:24:56.817Z,2.60
2022-09-17T19:27:25.363Z,2.33
2022-09-17T19:29:55.214Z,2.50
2022-09-17T19:32:23.735Z,2.40
2022-09-17T19:34:52.295Z,2.50
2022-09-17T19:37:22.149Z,2.33
2022-09-17T19:39:50.816Z,2.33
2022-09-17T19:42:19.483Z,2.22
2022-09-17T19:44:48.014Z,2.13
2022-09-17T19:47:16.508Z,2.33
2022-09-17T19:49:46.819Z,2.22
2022-09-17T19:52:15.373Z,1.93
2022-09-17T19:54:45.252Z,2.38
2022-09-17T19:57:14.004Z,2.08
2022-09-17T19:59:42.511Z,2.30
2022-09-17T20:02:12.615Z,2.20
2022-09-17T20:04:41.156Z,2.25
2022-09-17T20:07:09.726Z,2.00
2022-09-17T20:09:38.271Z,2.13
2022-09-17T20:12:08.539Z,2.22
2022-09-17T20:14:37.092Z,1.90
2022-09-17T20:17:05.759Z,2.00
2022-09-17T20:19:34.284Z,2.13
2022-09-17T20:22:02.822Z,2.00
2022-09-17T20:24:31.335Z,1.85
2022-09-17T20:26:59.864Z,2.00
2022-09-17T20:29:29.712Z,2.05
2022-09-17T20:31:58.251Z,1.95
2022-09-17T20:34:26.851Z,2.30
2022-09-17T20:37:12.183Z,2.25
2022-09-17T20:39:41.452Z,2.00
2022-09-17T20:42:10.239Z,2.08
2022-09-17T20:44:40.094Z,2.28
2022-09-17T20:47:08.679Z,2.10
2022-09-17T20:49:37.184Z,2.03
2022-09-17T20:52:05.860Z,2.33
2022-09-17T20:54:34.413Z,2.28
2022-09-17T20:57:02.955Z,2.20
2022-09-17T20:59:50.148Z,1.80
2022-09-17T21:02:21.752Z,1.90
2022-09-17T21:04:51.177Z,2.03
2022-09-17T21:07:19.712Z,1.92
2022-09-17T21:09:48.263Z,1.92
2022-09-17T21:12:16.867Z,2.15
2022-09-17T21:14:45.373Z,2.28
2022-09-17T21:17:14.061Z,2.03
2022-09-17T21:19:43.913Z,2.28
2022-09-17T21:22:12.467Z,1.80
2022-09-17T21:24:40.961Z,2.20
2022-09-17T21:27:09.506Z,1.97
2022-09-17T21:29:38.053Z,1.70
2022-09-17T21:32:06.609Z,1.98
2022-09-17T21:34:35.146Z,2.17
2022-09-17T21:37:05.651Z,1.83
2022-09-17T21:39:35.586Z,1.85
2022-09-17T21:42:04.186Z,2.05
2022-09-17T21:44:32.750Z,1.98
2022-09-17T21:47:01.372Z,2.10
2022-09-17T21:49:29.880Z,1.95
2022-09-17T21:51:58.402Z,2.40
2022-09-17T21:54:28.246Z,2.00
2022-09-17T21:56:56.764Z,2.28
2022-09-17T21:59:25.275Z,2.28
2022-09-17T22:01:56.390Z,2.28
2022-09-17T22:04:25.741Z,2.40
2022-09-17T22:06:55.553Z,1.83
2022-09-17T22:09:25.502Z,2.05
2022-09-17T22:11:55.532Z,2.17
2022-09-17T22:14:25.588Z,2.20
2022-09-17T22:16:56.956Z,2.33
2022-09-17T22:19:26.710Z,2.22
2022-09-17T22:21:56.658Z,2.60
2022-09-17T22:24:25.786Z,2.15
2022-09-17T22:26:58.049Z,2.40
2022-09-17T22:29:30.249Z,1.98
2022-09-17T22:31:58.775Z,1.77
2022-09-17T22:34:27.293Z,2.00
2022-09-17T22:36:55.835Z,2.08
2022-09-17T22:39:24.521Z,2.22
2022-09-17T22:41:54.769Z,2.83
2022-09-17T22:44:23.605Z,2.30
2022-09-17T22:46:52.813Z,2.50
2022-09-17T22:49:21.503Z,2.20
2022-09-17T22:51:50.203Z,2.42
2022-09-17T22:54:19.935Z,2.17
2022-09-17T22:56:50.179Z,2.40
2022-09-17T22:59:21.635Z,2.38
2022-09-17T23:01:50.206Z,2.22
2022-09-17T23:04:18.773Z,2.60
2022-09-17T23:06:47.300Z,2.58
2022-09-17T23:09:16.223Z,2.30
2022-09-17T23:11:45.198Z,2.10
2022-09-17T23:14:14.729Z,2.33
2022-09-17T23:16:46.891Z,2.42
2022-09-17T23:19:17.248Z,2.20
2022-09-17T23:21:46.746Z,2.30
2022-09-17T23:24:20.347Z,2.30
2022-09-17T23:26:49.418Z,2.50
2022-09-17T23:29:18.691Z,2.53
2022-09-17T23:31:48.780Z,2.10
2022-09-17T23:34:17.469Z,2.30
2022-09-17T23:36:47.486Z,2.50
2022-09-17T23:39:16.119Z,2.67
2022-09-17T23:41:45.620Z,2.78
2022-09-17T23:44:16.329Z,2.65
2022-09-17T23:46:47.280Z,2.77
2022-09-17T23:49:16.731Z,2.20
2022-09-17T23:51:45.945Z,2.63
2022-09-17T23:54:14.781Z,2.47
2022-09-17T23:56:43.803Z,2.15
2022-09-17T23:59:12.633Z,2.30
